KSOP/SOP METAR and TAF weather

Enter ICAO airport designator
Station Type Date Time Source
KSOP METAR 2021/07/29 16:56 UTC NOAA

KSOP 291656Z AUTO 22007KT 10SM CLR 33/24 A3003 RMK AO2 SLP168 T03280244


Station Type Date Time Source
KSOP Decoded METAR 2021/07/29 16:56 UTC NOAA

Pinehurst/Southern Pines, Moore County Airport, NC, United States (KSOP) 35-14N 079-24W
Jul 29, 2021 - 12:56 PM EDT / 2021.07.29 1656 UTC
Wind: from the SW (220 degrees) at 8 MPH (7 KT):0
Visibility: 10 mile(s):0
Sky conditions: clear
Temperature: 91.0 F (32.8 C)
Heat index: 102.7 F (39.3 C):1
Dew Point: 75.9 F (24.4 C)
Relative Humidity: 61%
Pressure (altimeter): 30.03 in. Hg (1016 hPa)
ob: KSOP 291656Z AUTO 22007KT 10SM CLR 33/24 A3003 RMK AO2 SLP168 T03280244
cycle: 17

Station Type Date Time Source
KSOP TAF UTC NOAA

Error!

Example: see airport list